Time;durP1;ratioP1;P1;durP2;ratioP2;P2;SDS_P1;SDS_P2;PMS_P1;PMS_P2;Temp;Humidity;BMP_temperature;BMP_pressure;BME280_temperature;BME280_humidity;BME280_pressure;Samples;Min_cycle;Max_cycle;Signal;HPM_P1;HPM_P2
2022/03/05 00:00:33;;;;;;;40.47;18.10;;;;;;;;;;5036779;28;20025;-77
2022/03/05 00:02:59;;;;;;;20.15;11.50;;;;;;;;;;5036338;28;20051;-77
2022/03/05 00:05:26;;;;;;;16.58;10.43;;;;;;;;;;5032679;28;20033;-77
2022/03/05 00:07:53;;;;;;;13.15;9.48;;;;;;;;;;5038429;28;20428;-77
2022/03/05 00:10:21;;;;;;;11.40;8.43;;;;;;;;;;5037020;28;20031;-77
2022/03/05 00:12:48;;;;;;;17.05;9.38;;;;;;;;;;5036195;28;20021;-77
2022/03/05 00:15:15;;;;;;;13.85;8.48;;;;;;;;;;5035273;28;20412;-76
2022/03/05 00:17:41;;;;;;;11.05;7.38;;;;;;;;;;5032423;28;20543;-76
2022/03/05 00:20:08;;;;;;;12.18;7.47;;;;;;;;;;5036201;28;20470;-77
2022/03/05 00:22:34;;;;;;;11.07;7.82;;;;;;;;;;5036042;28;20043;-77
2022/03/05 00:25:00;;;;;;;12.10;8.00;;;;;;;;;;5036674;28;20017;-77
2022/03/05 00:27:27;;;;;;;11.25;6.95;;;;;;;;;;5035846;28;20029;-77
2022/03/05 00:29:53;;;;;;;14.13;6.75;;;;;;;;;;5034904;28;20035;-77
2022/03/05 00:32:20;;;;;;;9.40;7.00;;;;;;;;;;5033335;28;20378;-77
2022/03/05 00:34:46;;;;;;;9.75;7.15;;;;;;;;;;5038071;28;20504;-76
2022/03/05 00:37:12;;;;;;;11.32;6.85;;;;;;;;;;5034812;28;20071;-76
2022/03/05 00:39:39;;;;;;;12.13;7.30;;;;;;;;;;5036146;28;20017;-76
2022/03/05 00:42:06;;;;;;;10.85;7.15;;;;;;;;;;5035652;28;20036;-77
2022/03/05 00:44:32;;;;;;;11.18;7.88;;;;;;;;;;5031646;28;20497;-77
2022/03/05 00:46:59;;;;;;;16.70;10.70;;;;;;;;;;5037803;28;20397;-76
2022/03/05 00:49:25;;;;;;;18.40;11.10;;;;;;;;;;5035911;28;20040;-77
2022/03/05 00:51:52;;;;;;;20.52;12.55;;;;;;;;;;5035862;28;20017;-77
2022/03/05 00:54:19;;;;;;;11.40;7.72;;;;;;;;;;5036018;28;20458;-77
2022/03/05 00:56:46;;;;;;;11.43;8.05;;;;;;;;;;5031634;28;20024;-77
2022/03/05 00:59:12;;;;;;;11.82;7.10;;;;;;;;;;5034838;28;20033;-77
2022/03/05 01:01:39;;;;;;;11.38;7.30;;;;;;;;;;5035431;28;20482;-77
2022/03/05 01:04:06;;;;;;;12.65;7.22;;;;;;;;;;5033955;28;20017;-77
2022/03/05 01:06:33;;;;;;;9.05;6.72;;;;;;;;;;5035435;28;20027;-77
2022/03/05 01:09:00;;;;;;;10.55;7.25;;;;;;;;;;5034833;28;20024;-77
2022/03/05 01:11:26;;;;;;;12.23;8.75;;;;;;;;;;5031085;28;20025;-77
2022/03/05 01:13:53;;;;;;;11.52;7.05;;;;;;;;;;5037717;28;20046;-77
2022/03/05 01:16:19;;;;;;;10.73;7.50;;;;;;;;;;5034413;28;20071;-77
2022/03/05 01:18:46;;;;;;;10.38;7.30;;;;;;;;;;5035158;28;20136;-76
2022/03/05 01:21:12;;;;;;;9.60;7.10;;;;;;;;;;5035214;28;20017;-77
2022/03/05 01:23:39;;;;;;;9.02;6.63;;;;;;;;;;5031766;28;20074;-77
2022/03/05 01:26:05;;;;;;;11.95;7.57;;;;;;;;;;5035067;28;20031;-77
2022/03/05 01:28:32;;;;;;;13.57;8.98;;;;;;;;;;5035744;28;20094;-77
2022/03/05 01:30:59;;;;;;;13.07;8.68;;;;;;;;;;5035473;28;20027;-76
2022/03/05 01:33:25;;;;;;;12.73;8.05;;;;;;;;;;5035033;28;20371;-77
2022/03/05 01:35:51;;;;;;;11.85;7.38;;;;;;;;;;5032865;28;20031;-76
2022/03/05 01:38:18;;;;;;;10.63;7.40;;;;;;;;;;5032666;28;20037;-76
2022/03/05 01:40:45;;;;;;;11.85;8.48;;;;;;;;;;5034570;28;20051;-77
2022/03/05 01:43:11;;;;;;;11.48;7.60;;;;;;;;;;5033408;28;20029;-76
2022/03/05 01:45:38;;;;;;;11.50;8.43;;;;;;;;;;5034704;28;20024;-77
2022/03/05 01:48:05;;;;;;;11.35;7.53;;;;;;;;;;5034804;28;20023;-77
2022/03/05 01:50:31;;;;;;;12.05;8.52;;;;;;;;;;5030563;28;20395;-77
2022/03/05 01:52:58;;;;;;;10.90;7.78;;;;;;;;;;5043738;28;20073;-76
2022/03/05 01:55:24;;;;;;;12.13;7.63;;;;;;;;;;5034605;28;20034;-77
2022/03/05 01:57:51;;;;;;;10.07;7.63;;;;;;;;;;5034606;28;20026;-77
2022/03/05 02:00:17;;;;;;;9.90;6.75;;;;;;;;;;5034643;28;20242;-77
2022/03/05 02:02:44;;;;;;;10.52;6.85;;;;;;;;;;5031872;28;20405;-77
2022/03/05 02:05:11;;;;;;;10.57;6.95;;;;;;;;;;5033392;28;20021;-76
2022/03/05 02:07:38;;;;;;;11.13;7.80;;;;;;;;;;5035890;28;20033;-76
2022/03/05 02:10:05;;;;;;;12.07;7.28;;;;;;;;;;5034322;28;20017;-76
2022/03/05 02:12:32;;;;;;;11.27;7.88;;;;;;;;;;5034533;28;20029;-77
2022/03/05 02:14:59;;;;;;;9.20;7.00;;;;;;;;;;5034087;28;20021;-77
2022/03/05 02:17:27;;;;;;;10.00;6.90;;;;;;;;;;5029879;28;20046;-77
2022/03/05 02:19:54;;;;;;;10.05;7.07;;;;;;;;;;5035653;28;20024;-77
2022/03/05 02:22:21;;;;;;;10.93;7.30;;;;;;;;;;5032847;28;20026;-77
2022/03/05 02:24:55;;;;;;;12.15;6.97;;;;;;;;;;5033866;28;20017;-76
2022/03/05 02:27:25;;;;;;;11.73;7.20;;;;;;;;;;5034110;28;20027;-76
2022/03/05 02:29:51;;;;;;;9.93;6.40;;;;;;;;;;5032616;28;20021;-77
2022/03/05 02:32:18;;;;;;;8.90;6.38;;;;;;;;;;5031662;28;20028;-77
2022/03/05 02:34:44;;;;;;;11.65;7.00;;;;;;;;;;5036168;28;20025;-77
2022/03/05 02:37:15;;;;;;;9.55;6.43;;;;;;;;;;5033683;28;20038;-76
2022/03/05 02:39:45;;;;;;;9.52;6.63;;;;;;;;;;5033977;28;20029;-77
2022/03/05 02:42:15;;;;;;;10.20;7.07;;;;;;;;;;5034185;28;20020;-76
2022/03/05 02:44:42;;;;;;;9.13;6.15;;;;;;;;;;5031166;28;20021;-76
2022/03/05 02:47:08;;;;;;;9.85;6.65;;;;;;;;;;5034020;28;20437;-76
2022/03/05 02:49:34;;;;;;;12.70;8.52;;;;;;;;;;5039219;28;20377;-76
2022/03/05 02:52:01;;;;;;;10.15;6.45;;;;;;;;;;5037784;28;20022;-77
2022/03/05 02:54:27;;;;;;;12.52;8.05;;;;;;;;;;5038009;28;20047;-77
2022/03/05 02:56:54;;;;;;;12.15;7.80;;;;;;;;;;5035321;28;20397;-77
2022/03/05 02:59:20;;;;;;;13.18;7.68;;;;;;;;;;5034868;28;20033;-77
2022/03/05 03:01:46;;;;;;;5.72;4.20;;;;;;;;;;5038615;28;20026;-77
2022/03/05 03:04:13;;;;;;;8.02;4.75;;;;;;;;;;5037900;28;20406;-77
2022/03/05 03:06:40;;;;;;;5.93;3.15;;;;;;;;;;5037447;28;20029;-76
2022/03/05 03:09:06;;;;;;;5.00;3.65;;;;;;;;;;5037817;28;20033;-77
2022/03/05 03:11:33;;;;;;;18.05;9.32;;;;;;;;;;5033728;28;20010;-77
2022/03/05 03:13:59;;;;;;;14.15;8.30;;;;;;;;;;5039260;28;20048;-77
2022/03/05 03:16:25;;;;;;;17.42;9.63;;;;;;;;;;5036274;28;20032;-76
2022/03/05 03:18:52;;;;;;;14.07;9.65;;;;;;;;;;5037512;28;20043;-76
2022/03/05 03:21:18;;;;;;;14.10;9.60;;;;;;;;;;5035907;28;20029;-76
2022/03/05 03:23:44;;;;;;;15.48;10.02;;;;;;;;;;5035008;28;20394;-76
2022/03/05 03:26:11;;;;;;;11.98;8.50;;;;;;;;;;5036331;28;20025;-76
2022/03/05 03:28:37;;;;;;;14.23;8.88;;;;;;;;;;5038961;28;20029;-76
2022/03/05 03:31:03;;;;;;;14.05;8.73;;;;;;;;;;5037756;28;20025;-76
2022/03/05 03:33:30;;;;;;;14.25;8.98;;;;;;;;;;5037271;28;20516;-76
2022/03/05 03:35:56;;;;;;;19.48;10.05;;;;;;;;;;5034685;28;20028;-76
2022/03/05 03:38:22;;;;;;;13.15;8.65;;;;;;;;;;5033308;28;20040;-76
2022/03/05 03:40:49;;;;;;;13.65;9.02;;;;;;;;;;5037495;28;20048;-76
2022/03/05 03:43:15;;;;;;;12.75;9.48;;;;;;;;;;5035862;28;20030;-76
2022/03/05 03:45:41;;;;;;;13.75;9.18;;;;;;;;;;5035723;28;20397;-76
2022/03/05 03:48:08;;;;;;;13.93;9.38;;;;;;;;;;5034927;28;20039;-76
2022/03/05 03:50:34;;;;;;;15.98;9.80;;;;;;;;;;5031679;28;20032;-76
2022/03/05 03:53:01;;;;;;;14.98;10.07;;;;;;;;;;5037006;28;20051;-76
2022/03/05 03:55:27;;;;;;;14.57;10.27;;;;;;;;;;5036276;28;20033;-76
2022/03/05 03:57:54;;;;;;;16.63;10.45;;;;;;;;;;5035208;28;20034;-76
2022/03/05 04:00:22;;;;;;;14.00;9.70;;;;;;;;;;5036051;28;20032;-76
2022/03/05 04:02:48;;;;;;;13.07;8.95;;;;;;;;;;5033616;28;20510;-76
2022/03/05 04:05:15;;;;;;;12.85;8.10;;;;;;;;;;5032807;28;20022;-76
2022/03/05 04:10:26;;;;;;;11.55;8.00;;;;;;;;;;5040101;28;20032;-76
2022/03/05 04:12:53;;;;;;;13.25;8.52;;;;;;;;;;5040172;28;20039;-76
2022/03/05 04:15:19;;;;;;;11.93;8.88;;;;;;;;;;5033938;28;20478;-76
2022/03/05 04:17:46;;;;;;;12.52;7.95;;;;;;;;;;5031599;28;20033;-76
2022/03/05 04:20:12;;;;;;;13.30;8.52;;;;;;;;;;5032304;28;20029;-76
2022/03/05 04:22:38;;;;;;;16.27;9.68;;;;;;;;;;5037427;28;20040;-76
2022/03/05 04:25:05;;;;;;;12.57;8.30;;;;;;;;;;5035196;28;20022;-76
2022/03/05 04:27:31;;;;;;;11.60;8.20;;;;;;;;;;5035597;28;20028;-76
2022/03/05 04:29:58;;;;;;;13.52;9.45;;;;;;;;;;5034696;28;20029;-76
2022/03/05 04:32:25;;;;;;;12.88;8.63;;;;;;;;;;5031609;28;20025;-76
2022/03/05 04:34:51;;;;;;;12.43;8.48;;;;;;;;;;5036828;28;20029;-76
2022/03/05 04:37:17;;;;;;;14.05;8.98;;;;;;;;;;5035156;28;20044;-76
2022/03/05 04:39:44;;;;;;;13.27;8.87;;;;;;;;;;4991703;28;1246026;-76
2022/03/05 04:42:10;;;;;;;13.23;9.73;;;;;;;;;;5036167;28;20037;-76
2022/03/05 04:44:36;;;;;;;14.10;9.60;;;;;;;;;;5032399;28;20021;-76
2022/03/05 04:47:03;;;;;;;18.00;10.90;;;;;;;;;;5036918;28;20037;-76
2022/03/05 04:49:29;;;;;;;15.90;10.35;;;;;;;;;;5034818;28;20029;-76
2022/03/05 04:51:56;;;;;;;14.88;10.43;;;;;;;;;;5035940;28;20025;-76
2022/03/05 04:54:25;;;;;;;15.85;10.55;;;;;;;;;;5034830;28;20025;-76
2022/03/05 04:56:51;;;;;;;16.80;10.43;;;;;;;;;;5032864;28;20059;-76
2022/03/05 04:59:18;;;;;;;15.70;10.95;;;;;;;;;;5065009;28;20048;-76
2022/03/05 05:01:44;;;;;;;16.98;11.70;;;;;;;;;;5037833;28;20034;-76
2022/03/05 05:04:10;;;;;;;16.35;10.70;;;;;;;;;;5035222;28;20483;-76
2022/03/05 05:06:36;;;;;;;17.83;11.00;;;;;;;;;;5035408;28;20024;-76
2022/03/05 05:09:03;;;;;;;15.43;10.15;;;;;;;;;;5035703;28;20031;-76
2022/03/05 05:11:29;;;;;;;16.63;10.50;;;;;;;;;;5030483;28;20038;-76
2022/03/05 05:13:55;;;;;;;21.17;11.88;;;;;;;;;;5037574;28;20394;-76
2022/03/05 05:16:22;;;;;;;24.92;14.00;;;;;;;;;;5035388;28;20025;-75
2022/03/05 05:19:34;;;;;;;18.95;11.25;;;;;;;;;;5034954;28;20499;-76
2022/03/05 05:21:35;;;;;;;15.25;9.88;;;;;;;;;;5035061;28;20044;-76
2022/03/05 05:24:01;;;;;;;16.08;9.80;;;;;;;;;;5035011;28;20021;-76
2022/03/05 05:26:27;;;;;;;18.13;11.80;;;;;;;;;;5030890;28;20095;-76
2022/03/05 05:28:54;;;;;;;18.52;11.93;;;;;;;;;;5037062;28;20025;-76
2022/03/05 05:31:20;;;;;;;18.90;11.75;;;;;;;;;;5034647;28;20025;-75
2022/03/05 05:33:46;;;;;;;21.48;12.68;;;;;;;;;;5032705;28;20031;-75
2022/03/05 05:36:13;;;;;;;20.75;11.73;;;;;;;;;;5032333;28;20032;-76
2022/03/05 05:38:39;;;;;;;18.27;11.68;;;;;;;;;;5031726;28;20048;-76
2022/03/05 05:41:07;;;;;;;19.58;11.43;;;;;;;;;;5034829;28;20528;-76
2022/03/05 05:43:33;;;;;;;18.33;11.82;;;;;;;;;;5035912;28;20029;-76
2022/03/05 05:45:59;;;;;;;19.27;12.15;;;;;;;;;;5033215;28;20496;-75
2022/03/05 05:48:26;;;;;;;22.60;11.48;;;;;;;;;;5034830;28;20018;-76
2022/03/05 05:50:52;;;;;;;23.30;11.20;;;;;;;;;;5032077;28;20037;-76
2022/03/05 05:53:18;;;;;;;16.38;10.27;;;;;;;;;;5031820;28;20496;-76
2022/03/05 05:55:45;;;;;;;16.35;10.18;;;;;;;;;;5036898;28;20486;-76
2022/03/05 05:58:11;;;;;;;17.05;11.13;;;;;;;;;;5034599;28;20037;-75
2022/03/05 06:00:38;;;;;;;18.88;11.63;;;;;;;;;;5034304;28;20528;-75
2022/03/05 06:03:04;;;;;;;17.73;10.10;;;;;;;;;;5034729;28;20478;-75
2022/03/05 06:05:31;;;;;;;20.23;12.38;;;;;;;;;;5030057;28;20487;-76
2022/03/05 06:07:57;;;;;;;18.23;11.68;;;;;;;;;;5043357;28;20501;-76
2022/03/05 06:10:24;;;;;;;17.65;11.77;;;;;;;;;;5034916;28;20043;-75
2022/03/05 06:12:50;;;;;;;19.10;11.43;;;;;;;;;;5033402;28;20021;-75
2022/03/05 06:15:17;;;;;;;18.02;12.07;;;;;;;;;;5032769;28;20097;-75
2022/03/05 06:17:44;;;;;;;18.10;12.05;;;;;;;;;;5031546;28;20032;-76
2022/03/05 06:20:11;;;;;;;20.23;12.35;;;;;;;;;;5033363;28;20033;-75
2022/03/05 06:22:39;;;;;;;20.63;12.90;;;;;;;;;;5035618;28;20027;-76
2022/03/05 06:25:06;;;;;;;19.02;12.40;;;;;;;;;;5034205;28;20127;-76
2022/03/05 06:27:32;;;;;;;21.35;12.80;;;;;;;;;;5034406;28;20024;-76
2022/03/05 06:29:58;;;;;;;18.75;11.98;;;;;;;;;;5033497;28;20023;-76
2022/03/05 06:32:25;;;;;;;19.08;11.65;;;;;;;;;;5030718;28;20021;-76
2022/03/05 06:34:54;;;;;;;19.08;12.32;;;;;;;;;;5036098;28;20030;-76
2022/03/05 06:37:21;;;;;;;19.75;12.40;;;;;;;;;;5034067;28;20083;-76
2022/03/05 06:39:48;;;;;;;19.92;12.80;;;;;;;;;;5034214;28;20032;-76
2022/03/05 06:42:15;;;;;;;21.80;13.05;;;;;;;;;;5032949;28;20032;-76
2022/03/05 06:44:42;;;;;;;19.65;12.70;;;;;;;;;;5030929;28;20013;-76
2022/03/05 06:47:08;;;;;;;20.48;13.13;;;;;;;;;;5034175;28;20037;-76
2022/03/05 06:49:34;;;;;;;23.60;14.18;;;;;;;;;;5035039;28;20030;-76
2022/03/05 06:52:01;;;;;;;23.38;14.75;;;;;;;;;;5032554;28;20026;-76
2022/03/05 06:54:27;;;;;;;26.30;15.15;;;;;;;;;;5032455;28;20025;-76
2022/03/05 06:56:53;;;;;;;27.70;15.60;;;;;;;;;;5032578;28;20013;-76
2022/03/05 06:59:20;;;;;;;21.25;14.48;;;;;;;;;;5030415;28;20033;-76
2022/03/05 07:01:46;;;;;;;21.52;14.40;;;;;;;;;;5035871;28;20029;-76
2022/03/05 07:04:12;;;;;;;23.98;15.23;;;;;;;;;;5033073;28;20340;-75
2022/03/05 07:06:39;;;;;;;19.85;13.70;;;;;;;;;;5033677;28;20026;-76
2022/03/05 07:09:05;;;;;;;23.50;14.52;;;;;;;;;;5033901;28;20047;-76
2022/03/05 07:11:32;;;;;;;22.98;14.18;;;;;;;;;;5030010;28;20028;-76
2022/03/05 07:13:59;;;;;;;26.20;14.82;;;;;;;;;;5035841;28;20031;-76
2022/03/05 07:16:25;;;;;;;24.85;14.43;;;;;;;;;;5032841;28;20026;-75
2022/03/05 07:18:52;;;;;;;21.73;13.95;;;;;;;;;;5033981;28;20036;-76
2022/03/05 07:21:18;;;;;;;23.75;14.90;;;;;;;;;;5033793;28;20071;-76
2022/03/05 07:23:44;;;;;;;23.20;14.63;;;;;;;;;;5031225;28;20028;-75
2022/03/05 07:26:11;;;;;;;26.75;13.80;;;;;;;;;;5032540;28;20027;-76
2022/03/05 07:28:37;;;;;;;23.60;14.07;;;;;;;;;;5034549;28;20029;-76
2022/03/05 07:31:03;;;;;;;26.63;14.30;;;;;;;;;;5032470;28;20500;-76
2022/03/05 07:33:30;;;;;;;20.50;13.80;;;;;;;;;;5031884;28;20028;-76
2022/03/05 07:35:56;;;;;;;23.92;12.80;;;;;;;;;;5036466;28;20037;-76
2022/03/05 07:38:22;;;;;;;19.58;12.98;;;;;;;;;;5033822;28;20038;-76
2022/03/05 07:40:49;;;;;;;18.08;12.43;;;;;;;;;;5039041;28;20045;-76
2022/03/05 07:43:15;;;;;;;18.20;11.75;;;;;;;;;;5036927;28;20063;-76
2022/03/05 07:45:42;;;;;;;18.40;11.13;;;;;;;;;;5037293;28;20021;-76
2022/03/05 07:48:08;;;;;;;16.65;11.52;;;;;;;;;;5037343;28;20039;-77
2022/03/05 07:50:34;;;;;;;18.02;11.73;;;;;;;;;;5032962;28;20032;-76
2022/03/05 07:53:01;;;;;;;19.60;12.57;;;;;;;;;;5038491;28;20026;-77
2022/03/05 07:55:27;;;;;;;19.55;12.10;;;;;;;;;;5035771;28;20029;-77
2022/03/05 07:57:53;;;;;;;16.50;11.18;;;;;;;;;;5036533;28;20647;-77
2022/03/05 08:00:20;;;;;;;16.88;11.60;;;;;;;;;;5036935;28;20547;-77
2022/03/05 08:02:46;;;;;;;15.57;11.30;;;;;;;;;;5033258;28;20498;-77
2022/03/05 08:05:12;;;;;;;15.82;11.60;;;;;;;;;;5035374;28;20027;-77
2022/03/05 08:07:39;;;;;;;14.65;11.20;;;;;;;;;;5037089;28;20040;-77
2022/03/05 08:10:07;;;;;;;18.17;11.70;;;;;;;;;;5035579;28;20083;-78
2022/03/05 08:12:34;;;;;;;14.65;11.80;;;;;;;;;;5033683;28;20018;-78
2022/03/05 08:15:01;;;;;;;16.45;11.10;;;;;;;;;;5036607;28;20021;-78
2022/03/05 08:17:27;;;;;;;15.20;12.07;;;;;;;;;;5032750;28;20040;-78
2022/03/05 08:19:54;;;;;;;15.10;11.52;;;;;;;;;;5038453;28;20034;-78
2022/03/05 08:22:21;;;;;;;16.75;10.80;;;;;;;;;;5036523;28;20043;-78
2022/03/05 08:24:47;;;;;;;13.82;11.07;;;;;;;;;;5036493;28;20021;-79
2022/03/05 08:27:13;;;;;;;14.25;11.07;;;;;;;;;;5035852;28;20031;-79
2022/03/05 08:29:40;;;;;;;13.20;10.98;;;;;;;;;;5032698;28;20028;-79
2022/03/05 08:32:06;;;;;;;13.45;10.30;;;;;;;;;;5036445;28;20025;-79
2022/03/05 08:34:32;;;;;;;14.60;10.65;;;;;;;;;;5068848;28;20033;-79
2022/03/05 08:36:59;;;;;;;15.27;10.25;;;;;;;;;;5036059;28;20090;-79
2022/03/05 08:39:25;;;;;;;14.60;10.98;;;;;;;;;;5036428;28;20033;-80
2022/03/05 08:41:52;;;;;;;16.77;10.80;;;;;;;;;;5033820;28;20038;-80
2022/03/05 08:44:18;;;;;;;22.02;11.95;;;;;;;;;;5032864;28;20584;-80
2022/03/05 08:46:44;;;;;;;15.82;11.88;;;;;;;;;;5037034;28;20024;-79
2022/03/05 08:49:11;;;;;;;16.70;11.23;;;;;;;;;;5034620;28;20025;-79
2022/03/05 08:51:41;;;;;;;14.68;10.98;;;;;;;;;;5034450;28;20026;-80
2022/03/05 08:54:07;;;;;;;14.52;11.70;;;;;;;;;;5035540;28;20019;-75
2022/03/05 08:56:33;;;;;;;13.50;10.85;;;;;;;;;;5030463;28;20025;-80
2022/03/05 08:59:00;;;;;;;14.60;10.52;;;;;;;;;;5037488;28;20041;-80
2022/03/05 09:01:26;;;;;;;13.75;10.38;;;;;;;;;;5036000;28;20021;-80
2022/03/05 09:03:52;;;;;;;14.43;10.23;;;;;;;;;;5035705;28;20367;-80
2022/03/05 09:06:19;;;;;;;12.27;9.70;;;;;;;;;;5035457;28;20021;-80
2022/03/05 09:08:45;;;;;;;13.32;10.02;;;;;;;;;;5032603;28;20056;-80
2022/03/05 09:11:12;;;;;;;11.63;9.68;;;;;;;;;;5033459;28;20025;-80
2022/03/05 09:13:38;;;;;;;14.60;10.23;;;;;;;;;;5036941;28;20402;-81
2022/03/05 09:16:04;;;;;;;12.32;9.60;;;;;;;;;;5035409;28;20029;-81
2022/03/05 09:18:31;;;;;;;11.68;9.90;;;;;;;;;;5035347;28;20086;-81
2022/03/05 09:20:57;;;;;;;11.43;9.38;;;;;;;;;;5034553;28;20032;-81
2022/03/05 09:23:23;;;;;;;10.30;8.65;;;;;;;;;;5031666;28;20032;-82
2022/03/05 09:25:50;;;;;;;15.50;7.95;;;;;;;;;;5037371;28;20017;-82
2022/03/05 09:28:16;;;;;;;12.10;7.82;;;;;;;;;;5034052;28;20020;-81
2022/03/05 09:30:42;;;;;;;9.20;8.30;;;;;;;;;;5033682;28;20029;-82
2022/03/05 09:33:09;;;;;;;9.15;8.23;;;;;;;;;;5035575;28;20017;-81
2022/03/05 09:35:35;;;;;;;8.63;7.57;;;;;;;;;;5031238;28;20030;-82
2022/03/05 09:38:02;;;;;;;8.63;7.45;;;;;;;;;;5035914;28;20041;-82
2022/03/05 09:40:29;;;;;;;9.95;7.28;;;;;;;;;;5035109;28;20099;-82
2022/03/05 09:42:56;;;;;;;8.63;6.85;;;;;;;;;;5033867;28;20051;-82
2022/03/05 09:45:22;;;;;;;7.07;6.38;;;;;;;;;;5034937;28;20021;-82
2022/03/05 09:47:48;;;;;;;7.63;6.82;;;;;;;;;;5032767;28;20033;-82
2022/03/05 09:50:15;;;;;;;8.95;6.60;;;;;;;;;;5033201;28;20022;-82
2022/03/05 09:52:41;;;;;;;9.65;6.75;;;;;;;;;;5036566;28;20031;-82
2022/03/05 09:55:09;;;;;;;7.15;5.97;;;;;;;;;;5034908;28;20818;-82
2022/03/05 09:57:35;;;;;;;7.22;6.53;;;;;;;;;;5034362;28;20033;-82
2022/03/05 10:00:02;;;;;;;6.72;5.97;;;;;;;;;;5034395;28;20029;-82
2022/03/05 10:02:30;;;;;;;9.02;6.57;;;;;;;;;;5030708;28;20032;-83
2022/03/05 10:05:15;;;;;;;8.20;6.57;;;;;;;;;;5036799;28;20034;-82
2022/03/05 10:07:58;;;;;;;5.80;4.78;;;;;;;;;;5036092;28;20100;-81
2022/03/05 10:10:25;;;;;;;4.32;3.92;;;;;;;;;;5033801;28;20028;-81
2022/03/05 10:12:51;;;;;;;5.03;4.40;;;;;;;;;;5034889;28;20025;-80
2022/03/05 10:15:17;;;;;;;6.47;4.78;;;;;;;;;;5034530;28;20017;-80
2022/03/05 10:17:57;;;;;;;5.32;4.55;;;;;;;;;;5031787;28;20030;-81
2022/03/05 10:20:26;;;;;;;5.20;4.30;;;;;;;;;;5031068;28;20034;-81
2022/03/05 10:22:55;;;;;;;4.35;3.72;;;;;;;;;;5036038;28;20532;-81
2022/03/05 10:25:30;;;;;;;3.88;3.53;;;;;;;;;;5034400;28;20021;-82
2022/03/05 10:28:05;;;;;;;4.10;3.70;;;;;;;;;;5034221;28;20059;-82
2022/03/05 10:30:33;;;;;;;4.25;3.53;;;;;;;;;;5034277;28;20013;-82
2022/03/05 10:32:59;;;;;;;3.40;3.10;;;;;;;;;;5033748;28;20025;-82
2022/03/05 10:35:25;;;;;;;3.63;3.00;;;;;;;;;;5029630;28;20030;-82
2022/03/05 10:37:52;;;;;;;3.55;3.25;;;;;;;;;;5035769;28;20039;-82
2022/03/05 10:40:32;;;;;;;4.55;3.85;;;;;;;;;;5034341;28;20046;-82
2022/03/05 10:43:08;;;;;;;4.43;3.50;;;;;;;;;;5034712;28;20104;-82
2022/03/05 10:45:51;;;;;;;3.85;3.53;;;;;;;;;;5033543;28;20251;-82
2022/03/05 10:48:25;;;;;;;4.45;4.05;;;;;;;;;;5033369;28;20033;-81
2022/03/05 10:50:59;;;;;;;3.35;3.03;;;;;;;;;;5032316;28;20394;-81
2022/03/05 10:53:41;;;;;;;3.58;3.22;;;;;;;;;;5030576;28;20037;-82
2022/03/05 10:56:26;;;;;;;4.47;3.22;;;;;;;;;;5044866;28;20028;-81
2022/03/05 10:59:09;;;;;;;4.20;3.35;;;;;;;;;;5036405;28;20448;-81
2022/03/05 11:01:37;;;;;;;3.40;3.10;;;;;;;;;;5031771;28;20086;-82
2022/03/05 11:04:03;;;;;;;3.72;2.88;;;;;;;;;;5034311;28;20028;-81
2022/03/05 11:06:31;;;;;;;3.08;2.75;;;;;;;;;;5033876;28;20017;-82
2022/03/05 11:08:57;;;;;;;6.50;3.63;;;;;;;;;;5034909;28;20017;-81
2022/03/05 11:11:24;;;;;;;6.28;3.90;;;;;;;;;;5034780;28;20060;-81
2022/03/05 11:13:50;;;;;;;4.22;3.72;;;;;;;;;;5040191;28;20021;-81
2022/03/05 11:16:16;;;;;;;7.95;4.20;;;;;;;;;;5038027;28;20405;-81
2022/03/05 11:18:43;;;;;;;3.58;2.80;;;;;;;;;;5038117;28;20036;-81
2022/03/05 11:21:09;;;;;;;4.03;3.00;;;;;;;;;;5037734;28;20027;-81
2022/03/05 11:23:37;;;;;;;4.30;2.85;;;;;;;;;;5032620;28;20485;-80
2022/03/05 11:26:07;;;;;;;4.53;3.70;;;;;;;;;;5038610;28;20105;-80
2022/03/05 11:28:38;;;;;;;3.80;3.42;;;;;;;;;;5037047;28;20032;-80
2022/03/05 11:31:04;;;;;;;;;;;;;;;;;;5038391;28;20013;-80
2022/03/05 11:33:38;;;;;;;4.00;2.80;;;;;;;;;;5037830;28;19912;-80
2022/03/05 11:36:08;;;;;;;3.50;3.10;;;;;;;;;;5037298;28;20385;-80
2022/03/05 11:38:38;;;;;;;3.17;2.88;;;;;;;;;;5017928;28;20040;-80
2022/03/05 11:41:20;;;;;;;3.70;3.00;;;;;;;;;;5038301;28;20401;-80
2022/03/05 11:43:49;;;;;;;3.97;2.90;;;;;;;;;;5038020;28;20029;-80
2022/03/05 11:46:28;;;;;;;3.22;2.67;;;;;;;;;;5037219;28;20026;-81
2022/03/05 11:49:00;;;;;;;4.68;3.40;;;;;;;;;;5037063;28;20071;-80
2022/03/05 11:51:26;;;;;;;3.30;2.92;;;;;;;;;;5037217;28;20025;-80
2022/03/05 11:54:19;;;;;;;3.33;3.03;;;;;;;;;;5035798;28;20030;-79
2022/03/05 11:57:02;;;;;;;2.63;2.40;;;;;;;;;;5019376;28;20041;-80
2022/03/05 11:59:30;;;;;;;4.30;3.03;;;;;;;;;;5033074;28;20036;-79
2022/03/05 12:01:57;;;;;;;3.92;2.58;;;;;;;;;;5037673;28;20029;-80
2022/03/05 12:04:28;;;;;;;3.85;3.03;;;;;;;;;;5035340;28;20389;-79
2022/03/05 12:07:03;;;;;;;4.15;3.00;;;;;;;;;;5035365;28;20026;-80
2022/03/05 12:09:34;;;;;;;3.13;2.83;;;;;;;;;;5036981;28;20021;-79
2022/03/05 12:12:01;;;;;;;3.28;2.92;;;;;;;;;;5036188;28;20019;-79
2022/03/05 12:14:46;;;;;;;3.83;3.40;;;;;;;;;;5033178;28;20030;-79
2022/03/05 12:17:12;;;;;;;4.60;3.60;;;;;;;;;;5046566;28;20033;-79
2022/03/05 12:19:47;;;;;;;3.90;3.35;;;;;;;;;;5037921;28;20506;-79
2022/03/05 12:22:14;;;;;;;4.22;3.20;;;;;;;;;;5036841;28;20022;-79
2022/03/05 12:24:41;;;;;;;5.03;3.40;;;;;;;;;;5036621;28;20026;-80
2022/03/05 12:27:13;;;;;;;4.68;2.80;;;;;;;;;;5036406;28;20020;-79
2022/03/05 12:29:49;;;;;;;3.70;3.30;;;;;;;;;;5033245;28;20022;-80
2022/03/05 12:32:16;;;;;;;5.47;3.33;;;;;;;;;;5034205;28;20032;-79
2022/03/05 12:34:43;;;;;;;3.92;3.35;;;;;;;;;;5037067;28;20038;-79
2022/03/05 12:37:10;;;;;;;5.45;2.83;;;;;;;;;;5036644;28;20092;-80
2022/03/05 12:39:43;;;;;;;5.07;3.03;;;;;;;;;;5036187;28;20029;-80
2022/03/05 12:42:10;;;;;;;2.75;2.50;;;;;;;;;;5033857;28;20110;-80
2022/03/05 12:44:37;;;;;;;4.07;2.83;;;;;;;;;;5030786;28;20372;-80
2022/03/05 12:47:04;;;;;;;2.97;2.67;;;;;;;;;;5037312;28;20029;-80
2022/03/05 12:49:30;;;;;;;3.70;3.10;;;;;;;;;;5036903;28;20029;-80
2022/03/05 12:51:57;;;;;;;4.97;2.97;;;;;;;;;;5036187;28;20393;-79
2022/03/05 12:54:23;;;;;;;3.33;2.95;;;;;;;;;;5036326;28;20033;-80
2022/03/05 12:56:56;;;;;;;3.35;2.78;;;;;;;;;;5033906;28;20479;-80
2022/03/05 12:59:23;;;;;;;2.50;2.25;;;;;;;;;;5032755;28;24335;-80
2022/03/05 13:01:51;;;;;;;2.92;2.60;;;;;;;;;;5036607;28;20095;-80
2022/03/05 13:04:18;;;;;;;3.35;2.70;;;;;;;;;;5035070;28;20036;-79
2022/03/05 13:06:47;;;;;;;3.30;3.00;;;;;;;;;;5035874;28;20032;-79
2022/03/05 13:09:17;;;;;;;4.75;3.08;;;;;;;;;;5034690;28;20019;-79
2022/03/05 13:11:48;;;;;;;5.60;3.10;;;;;;;;;;5033305;28;20021;-79
2022/03/05 13:14:19;;;;;;;5.70;2.45;;;;;;;;;;5035083;28;20025;-79
2022/03/05 13:16:48;;;;;;;3.47;2.92;;;;;;;;;;5035714;28;20470;-79
2022/03/05 13:19:15;;;;;;;2.72;2.30;;;;;;;;;;5034401;28;20494;-79
2022/03/05 13:21:42;;;;;;;4.55;2.50;;;;;;;;;;5034219;28;20180;-78
2022/03/05 13:24:10;;;;;;;4.38;3.10;;;;;;;;;;5033995;28;20035;-78
2022/03/05 13:26:37;;;;;;;5.43;2.70;;;;;;;;;;5031284;28;20021;-78
2022/03/05 13:29:05;;;;;;;2.50;2.30;;;;;;;;;;5036587;28;20025;-79
2022/03/05 13:31:31;;;;;;;3.15;2.30;;;;;;;;;;5067179;28;20040;-78
2022/03/05 13:33:58;;;;;;;2.72;2.50;;;;;;;;;;5035160;28;20020;-79
2022/03/05 13:36:27;;;;;;;5.40;3.25;;;;;;;;;;5035565;28;20486;-78
2022/03/05 13:38:58;;;;;;;4.13;3.17;;;;;;;;;;5033450;28;20033;-78
2022/03/05 13:41:26;;;;;;;4.45;2.53;;;;;;;;;;5031765;28;20056;-79
2022/03/05 13:43:52;;;;;;;5.78;2.80;;;;;;;;;;5037055;28;20029;-79
2022/03/05 13:46:22;;;;;;;3.03;2.45;;;;;;;;;;5035144;28;20037;-78
2022/03/05 13:48:53;;;;;;;6.72;2.70;;;;;;;;;;5035181;28;20029;-78
2022/03/05 13:51:21;;;;;;;4.28;3.22;;;;;;;;;;5034971;28;20029;-79
2022/03/05 13:53:58;;;;;;;2.95;2.58;;;;;;;;;;5032548;28;20071;-79
2022/03/05 13:56:25;;;;;;;3.20;2.50;;;;;;;;;;5032011;28;22568;-79
2022/03/05 13:58:52;;;;;;;5.05;1.98;;;;;;;;;;5036491;28;20037;-79
2022/03/05 14:01:35;;;;;;;2.90;2.30;;;;;;;;;;5033482;28;20567;-78
2022/03/05 14:04:20;;;;;;;4.22;3.35;;;;;;;;;;5033232;28;20389;-78
2022/03/05 14:06:47;;;;;;;5.50;3.70;;;;;;;;;;5034739;28;20360;-78
2022/03/05 14:09:19;;;;;;;5.30;3.10;;;;;;;;;;5034796;28;20033;-78
2022/03/05 14:11:45;;;;;;;4.90;3.53;;;;;;;;;;5032085;28;20091;-78
2022/03/05 14:14:12;;;;;;;3.67;2.83;;;;;;;;;;5033745;28;20025;-78
2022/03/05 14:16:44;;;;;;;3.67;2.67;;;;;;;;;;5035703;28;20502;-78
2022/03/05 14:19:27;;;;;;;7.72;2.97;;;;;;;;;;5034524;28;20037;-79
2022/03/05 14:22:03;;;;;;;6.75;2.65;;;;;;;;;;5034652;28;20364;-78
2022/03/05 14:24:30;;;;;;;2.70;2.45;;;;;;;;;;5033431;28;20032;-79
2022/03/05 14:26:56;;;;;;;4.57;3.20;;;;;;;;;;5033105;28;20016;-79
2022/03/05 14:29:23;;;;;;;6.20;3.13;;;;;;;;;;5031010;28;20033;-79
2022/03/05 14:31:49;;;;;;;4.53;3.03;;;;;;;;;;5035387;28;20036;-78
2022/03/05 14:34:21;;;;;;;5.72;2.80;;;;;;;;;;5034583;28;20405;-78
2022/03/05 14:36:47;;;;;;;3.05;2.75;;;;;;;;;;5033497;28;20029;-78